createdAt,value
2023-01-29T00:00:53.770Z,42.70
2023-01-29T00:03:57.200Z,39.13
2023-01-29T00:07:00.001Z,32.85
2023-01-29T00:10:02.475Z,36.58
2023-01-29T00:13:06.622Z,36.08
2023-01-29T00:16:09.421Z,40.00
2023-01-29T00:19:12.003Z,44.77
2023-01-29T00:22:14.468Z,45.92
2023-01-29T00:25:17.079Z,36.85
2023-01-29T00:28:19.622Z,33.00
2023-01-29T00:31:24.173Z,40.87
2023-01-29T00:34:26.798Z,48.08
2023-01-29T00:37:29.379Z,40.40
2023-01-29T00:40:52.116Z,37.70
2023-01-29T00:44:13.454Z,49.20
2023-01-29T00:47:31.084Z,51.15
2023-01-29T00:50:34.490Z,46.20
2023-01-29T00:53:36.976Z,81.82
2023-01-29T00:56:39.449Z,55.53
2023-01-29T00:59:42.114Z,50.50
2023-01-29T01:03:03.435Z,51.88
2023-01-29T01:06:08.412Z,50.23
2023-01-29T01:09:29.801Z,38.35
2023-01-29T01:12:32.478Z,40.13
2023-01-29T01:15:37.167Z,42.03
2023-01-29T01:18:39.852Z,39.33
2023-01-29T01:21:45.547Z,44.67
2023-01-29T01:24:48.174Z,42.83
2023-01-29T01:27:54.861Z,39.35
2023-01-29T01:30:57.458Z,40.77
2023-01-29T01:33:59.981Z,42.23
2023-01-29T01:37:02.891Z,35.13
2023-01-29T01:40:12.854Z,40.67
2023-01-29T01:43:15.372Z,38.03
2023-01-29T01:46:17.874Z,47.47
2023-01-29T01:49:21.772Z,41.17
2023-01-29T01:52:24.439Z,41.33
2023-01-29T01:55:30.294Z,45.33
2023-01-29T01:58:50.677Z,50.38
2023-01-29T02:01:54.415Z,51.03
2023-01-29T02:05:16.116Z,42.33
2023-01-29T02:08:56.300Z,46.97
2023-01-29T02:11:58.761Z,41.83
2023-01-29T02:15:02.073Z,39.35
2023-01-29T02:18:04.844Z,42.90
2023-01-29T02:21:47.247Z,42.53
2023-01-29T02:25:32.095Z,44.50
2023-01-29T02:28:41.975Z,44.58
2023-01-29T02:31:51.424Z,38.42
2023-01-29T02:35:30.629Z,36.23
2023-01-29T02:38:44.231Z,36.42
2023-01-29T02:42:11.770Z,41.47
2023-01-29T02:45:21.438Z,38.58
2023-01-29T02:48:25.782Z,41.23
2023-01-29T02:51:32.043Z,39.55
2023-01-29T02:54:53.554Z,44.20
2023-01-29T02:58:07.699Z,37.22
2023-01-29T03:01:30.940Z,44.13
2023-01-29T03:04:42.543Z,42.28
2023-01-29T03:07:52.351Z,43.28
2023-01-29T03:11:07.092Z,35.77
2023-01-29T03:14:24.185Z,47.08
2023-01-29T03:17:34.208Z,44.10
2023-01-29T03:20:48.312Z,44.28
2023-01-29T03:24:12.667Z,45.10
2023-01-29T03:27:38.949Z,39.53
2023-01-29T03:31:05.741Z,39.53
2023-01-29T03:34:38.936Z,38.53
2023-01-29T03:37:48.261Z,35.23
2023-01-29T03:40:58.276Z,42.72
2023-01-29T03:44:15.188Z,38.53
2023-01-29T03:47:17.648Z,38.33
2023-01-29T03:50:38.592Z,43.83
2023-01-29T03:53:50.205Z,39.07
2023-01-29T03:57:19.600Z,39.28
2023-01-29T04:00:35.957Z,37.38
2023-01-29T04:03:46.442Z,37.17
2023-01-29T04:06:53.137Z,37.53
2023-01-29T04:10:00.074Z,36.97
2023-01-29T04:13:08.976Z,36.53
2023-01-29T04:16:20.767Z,34.70
2023-01-29T04:19:41.624Z,40.60
2023-01-29T04:22:48.065Z,39.83
2023-01-29T04:26:07.244Z,42.65
2023-01-29T04:29:17.608Z,39.17
2023-01-29T04:32:28.316Z,38.38
2023-01-29T04:35:34.172Z,40.13
2023-01-29T04:38:47.793Z,36.97
2023-01-29T04:41:55.801Z,34.53
2023-01-29T04:45:01.784Z,35.63
2023-01-29T04:48:18.488Z,49.93
2023-01-29T04:51:37.028Z,38.87
2023-01-29T04:54:51.298Z,34.65
2023-01-29T04:58:07.450Z,31.00
2023-01-29T05:01:17.003Z,34.90
2023-01-29T05:04:21.689Z,41.63
2023-01-29T05:07:25.752Z,39.17
2023-01-29T05:10:29.299Z,38.13
2023-01-29T05:13:35.123Z,38.33
2023-01-29T05:16:44.147Z,37.47
2023-01-29T05:19:47.501Z,42.47
2023-01-29T05:22:50.234Z,35.63
2023-01-29T05:25:52.818Z,39.95
2023-01-29T05:28:56.273Z,37.03
2023-01-29T05:31:58.855Z,40.67
2023-01-29T05:35:01.575Z,41.83
2023-01-29T05:38:04.058Z,37.78
2023-01-29T05:41:14.157Z,42.45
2023-01-29T05:44:16.564Z,40.13
2023-01-29T05:47:20.072Z,36.50
2023-01-29T05:50:23.650Z,36.45
2023-01-29T05:53:26.131Z,34.95
2023-01-29T05:56:28.540Z,39.72
2023-01-29T05:59:31.371Z,47.87
2023-01-29T06:02:33.935Z,46.67
2023-01-29T06:05:39.487Z,39.45
2023-01-29T06:08:42.253Z,45.33
2023-01-29T06:11:45.063Z,45.38
2023-01-29T06:14:47.835Z,40.33
2023-01-29T06:17:50.402Z,43.37
2023-01-29T06:20:52.908Z,41.17
2023-01-29T06:23:55.591Z,35.53
2023-01-29T06:26:58.485Z,36.80
2023-01-29T06:30:00.969Z,29.67
2023-01-29T06:33:03.528Z,31.40
2023-01-29T06:36:06.601Z,31.90
2023-01-29T06:39:09.519Z,26.92
2023-01-29T06:42:12.061Z,36.47
2023-01-29T06:45:14.567Z,42.13
2023-01-29T06:48:18.072Z,42.57
2023-01-29T06:51:22.977Z,40.70
2023-01-29T06:54:25.498Z,42.42
2023-01-29T06:57:30.188Z,37.95
2023-01-29T07:00:35.182Z,34.00
2023-01-29T07:03:38.251Z,32.73
2023-01-29T07:06:40.691Z,36.97
2023-01-29T07:09:43.447Z,41.05
2023-01-29T07:12:45.891Z,41.65
2023-01-29T07:15:48.303Z,35.77
2023-01-29T07:18:50.770Z,43.60
2023-01-29T07:21:53.284Z,29.38
2023-01-29T07:24:56.054Z,23.60
2023-01-29T07:28:01.215Z,27.83
2023-01-29T07:31:05.360Z,24.67
2023-01-29T07:34:07.929Z,17.53
2023-01-29T07:37:11.430Z,15.75
2023-01-29T07:40:15.098Z,14.90
2023-01-29T07:43:19.244Z,16.15
2023-01-29T07:46:21.699Z,19.97
2023-01-29T07:49:24.274Z,15.40
2023-01-29T07:52:27.183Z,19.33
2023-01-29T07:55:30.408Z,14.88
2023-01-29T07:58:35.581Z,18.67
2023-01-29T08:01:38.948Z,16.23
2023-01-29T08:04:41.425Z,14.63
2023-01-29T08:07:47.356Z,14.80
2023-01-29T08:10:52.774Z,12.38
2023-01-29T08:13:56.677Z,13.47
2023-01-29T08:16:59.215Z,19.20
2023-01-29T08:20:01.853Z,13.93
2023-01-29T08:23:14.248Z,15.35
2023-01-29T08:26:16.849Z,10.85
2023-01-29T08:29:19.379Z,10.03
2023-01-29T08:32:21.840Z,12.90
2023-01-29T08:35:25.199Z,15.82
2023-01-29T08:38:28.007Z,16.98
2023-01-29T08:41:30.640Z,14.07
2023-01-29T08:44:33.125Z,11.47
2023-01-29T08:47:35.547Z,15.15
2023-01-29T08:50:38.734Z,12.25
2023-01-29T08:53:41.226Z,12.65
2023-01-29T08:56:44.129Z,10.93
2023-01-29T08:59:46.598Z,10.70
2023-01-29T09:02:49.050Z,14.07
2023-01-29T09:05:51.625Z,13.80
2023-01-29T09:08:54.212Z,12.00
2023-01-29T09:11:56.709Z,10.93
2023-01-29T09:14:59.296Z,11.48
2023-01-29T09:18:05.434Z,13.02
2023-01-29T09:21:08.238Z,12.10
2023-01-29T09:24:11.066Z,15.57
2023-01-29T09:27:14.701Z,12.55
2023-01-29T09:30:18.157Z,12.48
2023-01-29T09:33:20.951Z,6.95
2023-01-29T09:36:23.408Z,10.02
2023-01-29T09:39:25.978Z,10.90
2023-01-29T09:42:41.968Z,8.70
2023-01-29T09:45:58.356Z,12.27
2023-01-29T09:49:24.710Z,12.68
2023-01-29T09:52:35.121Z,7.00
2023-01-29T09:55:41.439Z,8.80
2023-01-29T09:58:44.217Z,8.50
2023-01-29T10:02:10.733Z,12.57
2023-01-29T10:05:31.816Z,14.10
2023-01-29T10:08:59.241Z,7.18
2023-01-29T10:12:43.112Z,7.43
2023-01-29T10:16:13.060Z,8.02
2023-01-29T10:19:35.734Z,11.15
2023-01-29T10:22:44.185Z,10.52
2023-01-29T10:25:47.880Z,12.17
2023-01-29T10:28:54.898Z,9.83
2023-01-29T10:32:05.092Z,10.93
2023-01-29T10:35:42.974Z,11.80
2023-01-29T10:38:48.214Z,5.03
2023-01-29T10:42:28.830Z,9.37
2023-01-29T10:45:42.283Z,9.80
2023-01-29T10:48:50.828Z,8.68
2023-01-29T10:51:59.026Z,6.97
2023-01-29T10:55:19.537Z,8.68
2023-01-29T10:58:24.695Z,9.90
2023-01-29T11:01:27.699Z,8.93
2023-01-29T11:04:32.382Z,13.45
2023-01-29T11:07:34.992Z,10.23
2023-01-29T11:10:59.090Z,9.37
2023-01-29T11:14:09.021Z,11.90
2023-01-29T11:17:20.135Z,11.38
2023-01-29T11:20:27.574Z,11.40
2023-01-29T11:23:32.668Z,5.72
2023-01-29T11:26:39.502Z,10.03
2023-01-29T11:29:48.472Z,7.67
2023-01-29T11:33:05.480Z,9.55
2023-01-29T11:36:32.900Z,7.72
2023-01-29T11:39:44.109Z,9.65
2023-01-29T11:42:47.460Z,9.73
2023-01-29T11:45:52.687Z,6.87
2023-01-29T11:48:59.365Z,8.13
2023-01-29T11:52:10.437Z,8.55
2023-01-29T11:55:48.580Z,7.18
2023-01-29T11:58:55.584Z,8.07
2023-01-29T12:02:26.797Z,8.47
2023-01-29T12:05:29.430Z,13.27
2023-01-29T12:08:37.107Z,7.05
2023-01-29T12:11:39.719Z,10.20
2023-01-29T12:14:44.020Z,8.37
2023-01-29T12:17:56.537Z,8.90
2023-01-29T12:21:03.616Z,7.15
2023-01-29T12:24:12.192Z,7.63
2023-01-29T12:27:27.709Z,9.30
2023-01-29T12:30:34.195Z,8.73
2023-01-29T12:34:19.234Z,9.77
2023-01-29T12:37:42.218Z,6.55
2023-01-29T12:40:55.268Z,8.07
2023-01-29T12:44:19.691Z,9.48
2023-01-29T12:47:38.789Z,5.67
2023-01-29T12:50:41.905Z,5.10
2023-01-29T12:53:56.942Z,7.47
2023-01-29T12:57:03.107Z,11.38
2023-01-29T13:00:20.423Z,8.93
2023-01-29T13:03:48.918Z,8.43
2023-01-29T13:06:59.247Z,6.37
2023-01-29T13:10:12.340Z,6.05
2023-01-29T13:13:21.140Z,6.82
2023-01-29T13:16:31.436Z,10.07
2023-01-29T13:19:40.932Z,5.93
2023-01-29T13:22:46.452Z,6.53
2023-01-29T13:25:53.500Z,7.10
2023-01-29T13:28:57.513Z,6.35
2023-01-29T13:32:01.878Z,8.18
2023-01-29T13:35:13.255Z,6.20
2023-01-29T13:38:35.498Z,6.37
2023-01-29T13:41:42.581Z,4.88
2023-01-29T13:44:55.875Z,4.75
2023-01-29T13:48:32.494Z,6.30
2023-01-29T13:51:36.785Z,7.63
2023-01-29T13:54:39.830Z,6.40
2023-01-29T13:57:45.088Z,6.45
2023-01-29T14:00:49.469Z,6.82
2023-01-29T14:04:04.555Z,7.28
2023-01-29T14:07:45.674Z,9.70
2023-01-29T14:11:17.315Z,10.57
2023-01-29T14:14:56.861Z,6.47
2023-01-29T14:18:06.905Z,8.35
2023-01-29T14:21:25.295Z,6.13
2023-01-29T14:24:31.100Z,7.43
2023-01-29T14:27:35.773Z,5.28
2023-01-29T14:30:41.160Z,6.05
2023-01-29T14:33:45.485Z,6.22
2023-01-29T14:36:55.388Z,7.13
2023-01-29T14:40:06.300Z,7.03
2023-01-29T14:43:20.816Z,6.95
2023-01-29T14:46:35.423Z,4.35
2023-01-29T14:49:58.889Z,7.00
2023-01-29T14:53:06.385Z,5.43
2023-01-29T14:56:20.129Z,6.80
2023-01-29T14:59:29.589Z,6.00
2023-01-29T15:02:44.052Z,7.15
2023-01-29T15:05:49.159Z,5.53
2023-01-29T15:09:12.101Z,7.10
2023-01-29T15:12:28.141Z,9.00
2023-01-29T15:15:44.125Z,5.93
2023-01-29T15:18:51.097Z,7.63
2023-01-29T15:22:23.349Z,6.60
2023-01-29T15:25:30.644Z,8.85
2023-01-29T15:28:35.433Z,7.40
2023-01-29T15:31:42.430Z,8.88
2023-01-29T15:34:45.092Z,7.93
2023-01-29T15:38:02.445Z,9.23
2023-01-29T15:41:19.590Z,7.55
2023-01-29T15:44:23.204Z,8.63
2023-01-29T15:47:32.077Z,10.77
2023-01-29T15:50:39.377Z,3.67
2023-01-29T15:53:48.289Z,15.52
2023-01-29T15:56:53.176Z,10.90
2023-01-29T15:59:58.949Z,10.90
2023-01-29T16:03:14.337Z,8.82
2023-01-29T16:06:17.346Z,10.05
2023-01-29T16:09:23.754Z,12.60
2023-01-29T16:12:27.122Z,10.18
2023-01-29T16:15:38.048Z,17.27
2023-01-29T16:18:57.929Z,10.63
2023-01-29T16:22:05.399Z,17.42
2023-01-29T16:25:14.803Z,17.38
2023-01-29T16:28:18.114Z,19.08
2023-01-29T16:31:27.312Z,20.25
2023-01-29T16:34:37.402Z,14.23
2023-01-29T16:37:40.104Z,14.25
2023-01-29T16:41:12.661Z,15.83
2023-01-29T16:44:15.376Z,7.75
2023-01-29T16:47:33.229Z,10.48
2023-01-29T16:50:46.328Z,13.55
2023-01-29T16:53:57.718Z,9.40
2023-01-29T16:57:02.060Z,10.15
2023-01-29T17:00:08.720Z,14.25
2023-01-29T17:03:13.485Z,11.77
2023-01-29T17:06:24.841Z,12.77
2023-01-29T17:09:30.276Z,14.90
2023-01-29T17:12:33.757Z,12.47
2023-01-29T17:15:45.084Z,14.93
2023-01-29T17:18:49.484Z,12.00
2023-01-29T17:21:52.240Z,15.38
2023-01-29T17:24:55.014Z,17.63
2023-01-29T17:28:01.713Z,14.02
2023-01-29T17:31:07.091Z,18.48
2023-01-29T17:34:14.798Z,15.97
2023-01-29T17:37:17.531Z,16.70
2023-01-29T17:40:37.087Z,14.43
2023-01-29T17:43:39.873Z,14.35
2023-01-29T17:46:43.381Z,12.53
2023-01-29T17:49:47.881Z,7.47
2023-01-29T17:52:50.953Z,17.40
2023-01-29T17:55:54.427Z,14.40
2023-01-29T17:58:57.187Z,14.38
2023-01-29T18:02:00.613Z,15.15
2023-01-29T18:05:03.638Z,12.75
2023-01-29T18:08:07.673Z,16.93
2023-01-29T18:11:12.877Z,14.10
2023-01-29T18:14:15.696Z,17.75
2023-01-29T18:17:22.499Z,16.33
2023-01-29T18:20:25.811Z,15.73
2023-01-29T18:23:31.208Z,13.30
2023-01-29T18:26:35.987Z,14.05
2023-01-29T18:29:38.723Z,21.90
2023-01-29T18:32:41.497Z,21.25
2023-01-29T18:35:45.288Z,21.20
2023-01-29T18:38:48.045Z,28.97
2023-01-29T18:41:50.813Z,28.98
2023-01-29T18:44:53.280Z,23.90
2023-01-29T18:47:57.597Z,22.63
2023-01-29T18:51:01.412Z,21.52
2023-01-29T18:54:04.339Z,19.27
2023-01-29T18:57:13.570Z,20.48
2023-01-29T19:00:17.854Z,17.98
2023-01-29T19:03:21.850Z,21.52
2023-01-29T19:06:24.670Z,16.25
2023-01-29T19:09:27.525Z,16.57
2023-01-29T19:12:30.246Z,19.08
2023-01-29T19:15:34.824Z,20.30
2023-01-29T19:18:37.984Z,18.03
2023-01-29T19:21:41.083Z,19.75
2023-01-29T19:24:45.865Z,16.05
2023-01-29T19:27:48.715Z,15.30
2023-01-29T19:30:52.588Z,16.23
2023-01-29T19:33:55.472Z,14.98
2023-01-29T19:36:58.269Z,14.02
2023-01-29T19:40:01.210Z,17.70
2023-01-29T19:43:05.062Z,16.10
2023-01-29T19:46:07.720Z,16.85
2023-01-29T19:49:10.700Z,18.53
2023-01-29T19:52:45.143Z,15.73
2023-01-29T19:56:05.035Z,18.23
2023-01-29T19:59:07.808Z,19.08
2023-01-29T20:02:10.807Z,16.98
2023-01-29T20:05:17.400Z,15.02
2023-01-29T20:08:20.790Z,15.77
2023-01-29T20:11:24.847Z,13.97
2023-01-29T20:14:27.742Z,12.82
2023-01-29T20:17:30.776Z,14.32
2023-01-29T20:20:34.464Z,11.83
2023-01-29T20:23:41.639Z,8.73
2023-01-29T20:26:44.541Z,14.35
2023-01-29T20:29:47.637Z,12.75
2023-01-29T20:32:50.495Z,15.27
2023-01-29T20:35:55.305Z,12.07
2023-01-29T20:38:58.132Z,14.65
2023-01-29T20:42:00.669Z,14.10
2023-01-29T20:45:03.885Z,14.00
2023-01-29T20:48:08.075Z,11.68
2023-01-29T20:51:16.270Z,12.60
2023-01-29T20:54:18.803Z,17.58
2023-01-29T20:57:21.747Z,12.05
2023-01-29T21:00:24.508Z,13.82
2023-01-29T21:03:27.395Z,14.65
2023-01-29T21:06:30.337Z,15.75
2023-01-29T21:09:33.181Z,14.93
2023-01-29T21:12:35.957Z,16.07
2023-01-29T21:15:38.654Z,14.82
2023-01-29T21:18:41.414Z,16.75
2023-01-29T21:21:43.984Z,17.00
2023-01-29T21:24:46.681Z,11.80
2023-01-29T21:27:50.432Z,15.27
2023-01-29T21:31:03.329Z,20.20
2023-01-29T21:34:06.198Z,21.45
2023-01-29T21:37:09.683Z,20.52
2023-01-29T21:40:12.206Z,14.77
2023-01-29T21:43:16.045Z,16.57
2023-01-29T21:46:18.757Z,16.17
2023-01-29T21:49:21.501Z,18.92
2023-01-29T21:52:24.007Z,14.83
2023-01-29T21:55:26.704Z,17.70
2023-01-29T21:58:30.092Z,22.48
2023-01-29T22:01:37.803Z,17.38
2023-01-29T22:04:42.629Z,17.02
2023-01-29T22:07:45.063Z,18.83
2023-01-29T22:10:47.769Z,17.00
2023-01-29T22:13:50.440Z,15.80
2023-01-29T22:16:52.965Z,15.60
2023-01-29T22:19:55.486Z,19.00
2023-01-29T22:23:00.304Z,19.37
2023-01-29T22:26:04.493Z,15.73
2023-01-29T22:29:07.082Z,14.05
2023-01-29T22:32:11.065Z,20.25
2023-01-29T22:35:13.661Z,19.95
2023-01-29T22:38:16.107Z,18.48
2023-01-29T22:41:18.552Z,19.60
2023-01-29T22:44:21.125Z,16.70
2023-01-29T22:47:23.583Z,16.13
2023-01-29T22:50:26.059Z,17.85
2023-01-29T22:53:28.480Z,20.30
2023-01-29T22:56:31.226Z,15.57
2023-01-29T22:59:33.898Z,16.15
2023-01-29T23:02:37.308Z,21.13
2023-01-29T23:05:39.879Z,18.75
2023-01-29T23:08:42.973Z,17.48
2023-01-29T23:11:45.501Z,21.95
2023-01-29T23:14:47.918Z,20.60
2023-01-29T23:17:50.431Z,19.25
2023-01-29T23:20:57.391Z,16.40
2023-01-29T23:24:01.067Z,17.40
2023-01-29T23:27:15.869Z,16.52
2023-01-29T23:30:18.756Z,21.60
2023-01-29T23:33:21.626Z,15.88
2023-01-29T23:36:24.281Z,16.13
2023-01-29T23:39:26.737Z,16.17
2023-01-29T23:42:29.344Z,15.57
2023-01-29T23:45:31.823Z,19.60
2023-01-29T23:48:34.734Z,18.40
2023-01-29T23:51:37.213Z,18.45
2023-01-29T23:54:39.649Z,20.40
2023-01-29T23:57:42.092Z,18.15
